Time;durP1;ratioP1;P1;durP2;ratioP2;P2;SDS_P1;SDS_P2;PMS_P1;PMS_P2;Temp;Humidity;BMP_temperature;BMP_pressure;BME280_temperature;BME280_humidity;BME280_pressure;Samples;Min_cycle;Max_cycle;Signal;HPM_P1;HPM_P2
2023/05/04 00:02:21;;;;;;;7.80;5.07;;;13.10;70.60;;;;;;5137214;27;20117;-78
2023/05/04 00:04:47;;;;;;;10.10;5.32;;;13.20;70.40;;;;;;5155122;27;20038;-78
2023/05/04 00:07:12;;;;;;;6.15;5.07;;;12.90;70.70;;;;;;5155841;27;20050;-78
2023/05/04 00:09:38;;;;;;;7.47;5.18;;;12.80;71.60;;;;;;5155743;27;20026;-77
2023/05/04 00:12:05;;;;;;;10.50;5.18;;;12.80;71.60;;;;;;5155763;27;20101;-78
2023/05/04 00:14:31;;;;;;;9.38;5.50;;;12.80;71.90;;;;;;5155518;27;20049;-78
2023/05/04 00:16:56;;;;;;;8.50;5.25;;;12.80;71.70;;;;;;5155391;27;20466;-78
2023/05/04 00:19:22;;;;;;;7.03;4.43;;;12.80;71.50;;;;;;5155646;27;20030;-78
2023/05/04 00:21:48;;;;;;;8.63;5.53;;;12.90;71.70;;;;;;5155665;27;20026;-78
2023/05/04 00:24:13;;;;;;;8.45;4.65;;;13.00;71.60;;;;;;5137163;27;20038;-79
2023/05/04 00:26:39;;;;;;;9.43;5.28;;;12.90;71.80;;;;;;5103198;27;20118;-78
2023/05/04 00:29:04;;;;;;;9.98;6.20;;;12.80;72.20;;;;;;5155641;27;20026;-78
2023/05/04 00:31:30;;;;;;;9.20;5.55;;;12.70;72.50;;;;;;5136722;27;20471;-78
2023/05/04 00:33:56;;;;;;;8.32;5.65;;;12.70;72.80;;;;;;5155011;27;20454;-78
2023/05/04 00:36:22;;;;;;;6.88;5.45;;;12.60;72.80;;;;;;5136868;27;20034;-78
2023/05/04 00:38:53;;;;;;;8.55;5.07;;;12.60;72.90;;;;;;5136974;27;20058;-78
2023/05/04 00:41:20;;;;;;;10.18;5.55;;;12.70;73.30;;;;;;5136852;27;20059;-78
2023/05/04 00:43:46;;;;;;;6.78;3.90;;;12.60;72.90;;;;;;5137067;27;20118;-78
2023/05/04 00:46:13;;;;;;;6.72;5.10;;;12.50;73.10;;;;;;5136514;27;20051;-78
2023/05/04 00:48:40;;;;;;;8.35;4.90;;;12.50;73.60;;;;;;5137830;27;20027;-78
2023/05/04 00:51:07;;;;;;;7.25;4.47;;;12.50;73.40;;;;;;5155997;27;20031;-78
2023/05/04 00:53:34;;;;;;;11.50;5.20;;;12.50;73.20;;;;;;5155342;27;20370;-78
2023/05/04 00:56:00;;;;;;;12.70;4.93;;;12.50;73.30;;;;;;5155772;27;20065;-78
2023/05/04 00:58:26;;;;;;;6.22;4.60;;;12.50;73.60;;;;;;5137029;27;20080;-78
2023/05/04 01:00:52;;;;;;;7.68;5.10;;;12.50;73.40;;;;;;5155840;27;20035;-78
2023/05/04 01:03:18;;;;;;;7.35;4.80;;;12.40;73.50;;;;;;5154587;27;20030;-78
2023/05/04 01:05:54;;;;;;;8.15;4.70;;;12.40;73.90;;;;;;5137015;27;20039;-79
2023/05/04 01:08:28;;;;;;;8.50;4.22;;;12.40;73.90;;;;;;5159187;27;20471;-78
2023/05/04 01:11:09;;;;;;;8.70;5.10;;;12.40;74.00;;;;;;5159014;27;20064;-77
2023/05/04 01:13:37;;;;;;;10.43;4.75;;;12.50;73.50;;;;;;5159325;27;20026;-78
2023/05/04 01:16:04;;;;;;;9.43;5.00;;;12.50;73.60;;;;;;5158723;27;20027;-78
2023/05/04 01:18:30;;;;;;;10.40;4.93;;;12.50;73.50;;;;;;5159133;27;20022;-78
2023/05/04 01:20:56;;;;;;;8.43;5.00;;;12.60;73.60;;;;;;5159350;27;20035;-78
2023/05/04 01:23:22;;;;;;;12.27;5.93;;;12.50;73.40;;;;;;5140529;27;20023;-78
2023/05/04 01:26:25;;;;;;;8.57;4.50;;;12.50;73.50;;;;;;5158924;27;20062;-78
2023/05/04 01:29:12;;;;;;;9.97;4.00;;;12.50;73.40;;;;;;5126363;27;20035;-78
2023/05/04 01:31:39;;;;;;;6.05;4.75;;;12.40;73.80;;;;;;5158938;27;20267;-78
2023/05/04 01:34:06;;;;;;;9.52;4.90;;;12.50;73.80;;;;;;5158422;27;20018;-78
2023/05/04 01:36:32;;;;;;;7.00;4.20;;;12.40;73.70;;;;;;5140134;27;20360;-78
2023/05/04 01:38:58;;;;;;;8.65;4.47;;;12.20;74.40;;;;;;5140096;27;20415;-78
2023/05/04 01:41:25;;;;;;;5.78;3.95;;;12.30;74.30;;;;;;5140371;27;20059;-78
2023/05/04 01:43:52;;;;;;;6.68;4.47;;;12.30;74.30;;;;;;5140149;27;20469;-78
2023/05/04 01:46:18;;;;;;;7.95;5.00;;;12.30;74.10;;;;;;5158082;27;20052;-78
2023/05/04 01:48:44;;;;;;;7.78;5.10;;;12.20;74.20;;;;;;5159650;27;20374;-78
2023/05/04 01:51:10;;;;;;;7.95;4.55;;;12.10;74.60;;;;;;5141292;27;20035;-79
2023/05/04 01:53:35;;;;;;;11.15;4.95;;;12.00;75.10;;;;;;5159689;27;20023;-78
2023/05/04 01:56:02;;;;;;;7.57;4.90;;;12.10;74.90;;;;;;5140762;27;20117;-78
2023/05/04 01:58:27;;;;;;;6.63;4.30;;;12.10;75.10;;;;;;5123474;27;20023;-78
2023/05/04 02:00:53;;;;;;;5.38;3.53;;;12.10;75.10;;;;;;5159828;27;20034;-78
2023/05/04 02:03:18;;;;;;;6.72;4.50;;;12.20;75.10;;;;;;5159555;27;20493;-78
2023/05/04 02:05:44;;;;;;;8.50;3.75;;;12.20;74.90;;;;;;5141120;27;20037;-78
2023/05/04 02:08:10;;;;;;;7.30;3.90;;;12.30;75.00;;;;;;5159780;27;20023;-78
2023/05/04 02:10:36;;;;;;;6.97;4.78;;;12.40;74.50;;;;;;5160711;27;20059;-78
2023/05/04 02:13:01;;;;;;;7.20;4.00;;;12.30;74.60;;;;;;5142349;27;20045;-77
2023/05/04 02:15:27;;;;;;;6.53;4.40;;;12.10;75.00;;;;;;5160918;27;20066;-78
2023/05/04 02:17:52;;;;;;;8.80;4.88;;;12.10;75.40;;;;;;5141487;27;20027;-78
2023/05/04 02:20:18;;;;;;;5.47;4.15;;;12.20;75.40;;;;;;5141004;27;20023;-78
2023/05/04 02:22:44;;;;;;;8.60;4.80;;;12.10;75.00;;;;;;5107246;27;20087;-78
2023/05/04 02:25:10;;;;;;;6.35;3.60;;;11.90;75.40;;;;;;5160572;27;20324;-78
2023/05/04 02:27:36;;;;;;;7.45;3.80;;;12.00;75.50;;;;;;5142894;27;20042;-78
2023/05/04 02:30:03;;;;;;;6.10;3.75;;;12.00;75.60;;;;;;5141778;27;20034;-78
2023/05/04 02:32:29;;;;;;;10.55;4.78;;;12.10;75.30;;;;;;5160512;27;20079;-78
2023/05/04 02:34:55;;;;;;;8.10;4.70;;;12.20;75.20;;;;;;5124317;27;20041;-78
2023/05/04 02:37:21;;;;;;;8.05;4.65;;;12.30;75.00;;;;;;5160571;27;20078;-78
2023/05/04 02:39:46;;;;;;;7.60;4.57;;;12.30;74.80;;;;;;5140952;27;20086;-78
2023/05/04 02:42:12;;;;;;;12.48;5.35;;;12.10;74.80;;;;;;5123205;27;20110;-78
2023/05/04 02:44:38;;;;;;;16.63;5.78;;;11.90;75.10;;;;;;5157647;27;20062;-78
2023/05/04 02:47:05;;;;;;;7.95;3.90;;;11.70;76.00;;;;;;5158166;27;20111;-79
2023/05/04 02:49:30;;;;;;;5.20;4.30;;;11.60;76.80;;;;;;5122946;27;20488;-78
2023/05/04 02:51:56;;;;;;;6.18;4.45;;;11.70;76.90;;;;;;5157739;27;20101;-78
2023/05/04 02:54:22;;;;;;;5.80;3.95;;;11.70;76.50;;;;;;5158125;27;20026;-78
2023/05/04 02:56:47;;;;;;;8.27;5.28;;;11.80;76.40;;;;;;5158222;27;20070;-78
2023/05/04 02:59:13;;;;;;;9.52;4.97;;;11.80;76.30;;;;;;5121936;27;20530;-78
2023/05/04 03:01:38;;;;;;;7.55;5.40;;;11.80;76.10;;;;;;5139442;27;20058;-78
2023/05/04 03:04:06;;;;;;;7.78;5.35;;;11.70;76.40;;;;;;5158769;27;20368;-78
2023/05/04 03:06:32;;;;;;;9.68;5.05;;;11.70;76.70;;;;;;5138694;27;20031;-78
2023/05/04 03:08:58;;;;;;;6.40;4.43;;;11.60;76.60;;;;;;5138403;27;20030;-78
2023/05/04 03:11:24;;;;;;;6.45;4.15;;;11.60;77.00;;;;;;5138371;27;20035;-78
2023/05/04 03:13:49;;;;;;;6.95;4.22;;;11.70;77.00;;;;;;5158681;27;20042;-78
2023/05/04 03:16:15;;;;;;;6.90;4.38;;;11.80;76.70;;;;;;5140565;27;20027;-77
2023/05/04 03:18:41;;;;;;;5.68;3.88;;;11.80;76.20;;;;;;5159292;27;20018;-78
2023/05/04 03:21:07;;;;;;;7.50;4.40;;;11.80;76.40;;;;;;5141228;27;20474;-78
2023/05/04 03:23:32;;;;;;;4.07;3.35;;;11.90;76.40;;;;;;5105818;27;20470;-78
2023/05/04 03:25:58;;;;;;;8.63;4.78;;;11.90;76.00;;;;;;5138910;27;20327;-78
2023/05/04 03:28:24;;;;;;;8.15;5.18;;;12.00;75.90;;;;;;5120558;27;20027;-78
2023/05/04 03:30:49;;;;;;;8.25;4.82;;;11.90;75.90;;;;;;5138844;27;20075;-78
2023/05/04 03:33:15;;;;;;;5.65;4.18;;;11.90;76.00;;;;;;5157889;27;20026;-78
2023/05/04 03:35:41;;;;;;;5.75;4.22;;;11.90;76.10;;;;;;5156743;27;20059;-78
2023/05/04 03:38:06;;;;;;;7.85;4.97;;;11.80;76.10;;;;;;5121332;27;20029;-79
2023/05/04 03:40:33;;;;;;;6.40;4.40;;;11.80;76.60;;;;;;5121165;27;20023;-78
2023/05/04 03:42:58;;;;;;;9.13;5.70;;;11.70;76.60;;;;;;5138422;27;20167;-79
2023/05/04 03:45:27;;;;;;;8.50;5.03;;;11.60;76.80;;;;;;5134122;27;20185;-78
2023/05/04 03:47:53;;;;;;;8.50;3.90;;;11.40;77.40;;;;;;5118008;27;20126;-78
2023/05/04 03:50:20;;;;;;;12.07;5.10;;;11.30;77.80;;;;;;5135223;27;20027;-78
2023/05/04 03:52:46;;;;;;;6.15;4.88;;;11.40;77.90;;;;;;5134514;27;20030;-78
2023/05/04 03:55:11;;;;;;;6.80;4.35;;;11.40;77.90;;;;;;5117676;27;20031;-78
2023/05/04 03:57:37;;;;;;;6.75;4.70;;;11.40;78.20;;;;;;5135273;27;20023;-78
2023/05/04 04:00:03;;;;;;;9.82;5.60;;;11.40;77.90;;;;;;5136531;27;20027;-78
2023/05/04 04:02:28;;;;;;;7.75;4.40;;;11.40;78.10;;;;;;5099586;27;20050;-78
2023/05/04 04:04:54;;;;;;;7.05;4.32;;;11.40;78.10;;;;;;5116273;27;20475;-79
2023/05/04 04:07:20;;;;;;;7.50;4.50;;;11.50;77.90;;;;;;5133848;27;20470;-79
2023/05/04 04:09:45;;;;;;;7.55;4.50;;;11.60;78.30;;;;;;5133369;27;20382;-78
2023/05/04 04:12:11;;;;;;;6.20;4.70;;;11.70;77.40;;;;;;5133153;27;20051;-78
2023/05/04 04:14:37;;;;;;;8.23;5.82;;;11.60;77.50;;;;;;5134184;27;20027;-78
2023/05/04 04:17:03;;;;;;;6.57;5.03;;;11.60;77.30;;;;;;5135518;27;20455;-78
2023/05/04 04:19:28;;;;;;;10.27;5.18;;;11.50;77.60;;;;;;5135881;27;20038;-78
2023/05/04 04:21:54;;;;;;;9.30;5.25;;;11.60;77.90;;;;;;5134465;27;20050;-78
2023/05/04 04:24:20;;;;;;;7.35;4.75;;;11.50;78.30;;;;;;5134270;27;20035;-79
2023/05/04 04:26:45;;;;;;;11.48;5.78;;;11.40;78.10;;;;;;5134857;27;20054;-78
2023/05/04 04:29:11;;;;;;;8.98;5.80;;;11.50;78.10;;;;;;5117839;27;20114;-78
2023/05/04 04:31:38;;;;;;;9.80;6.32;;;11.40;78.60;;;;;;5135114;27;20456;-78
2023/05/04 04:34:04;;;;;;;11.57;6.38;;;11.40;78.60;;;;;;5134729;27;20475;-78
2023/05/04 04:36:30;;;;;;;9.00;6.15;;;11.30;78.80;;;;;;5117328;28;20038;-78
2023/05/04 04:38:55;;;;;;;13.75;6.18;;;11.40;78.70;;;;;;5135146;27;20053;-78
2023/05/04 04:41:21;;;;;;;8.98;6.25;;;11.30;78.90;;;;;;5136193;27;20377;-78
2023/05/04 04:43:47;;;;;;;6.60;5.03;;;11.20;79.30;;;;;;5134943;27;20478;-78
2023/05/04 04:46:12;;;;;;;7.40;4.80;;;11.10;79.30;;;;;;5116878;28;20506;-78
2023/05/04 04:48:38;;;;;;;9.13;5.57;;;11.20;79.50;;;;;;5135090;28;20324;-78
2023/05/04 04:51:09;;;;;;;6.60;5.25;;;11.30;79.30;;;;;;5133996;28;20027;-78
2023/05/04 04:53:34;;;;;;;11.50;5.35;;;11.30;79.40;;;;;;5135323;27;20019;-78
2023/05/04 04:56:00;;;;;;;8.90;5.05;;;11.40;79.20;;;;;;5133967;28;20116;-79
2023/05/04 04:58:26;;;;;;;6.68;5.05;;;11.40;79.20;;;;;;5135363;28;20113;-78
2023/05/04 05:00:52;;;;;;;9.60;5.85;;;11.40;79.40;;;;;;5135427;28;20031;-78
2023/05/04 05:03:18;;;;;;;8.95;4.90;;;11.30;79.30;;;;;;5116937;28;20032;-78
2023/05/04 05:05:44;;;;;;;7.55;5.50;;;11.40;79.40;;;;;;5117150;28;20027;-78
2023/05/04 05:08:10;;;;;;;8.57;5.65;;;11.50;79.10;;;;;;5134349;28;20118;-78
2023/05/04 05:10:35;;;;;;;10.77;5.03;;;11.50;79.00;;;;;;5134681;28;20027;-78
2023/05/04 05:13:01;;;;;;;9.20;5.47;;;11.50;79.00;;;;;;5134732;28;20027;-78
2023/05/04 05:15:27;;;;;;;9.15;5.38;;;11.60;78.90;;;;;;5134734;28;20027;-78
2023/05/04 05:17:52;;;;;;;8.90;4.78;;;11.60;78.90;;;;;;5134235;28;20051;-78
2023/05/04 05:20:18;;;;;;;8.88;4.60;;;11.60;78.90;;;;;;5133515;28;20363;-78
2023/05/04 05:22:43;;;;;;;7.25;4.50;;;11.70;79.20;;;;;;5116027;28;20027;-78
2023/05/04 05:25:09;;;;;;;7.22;4.75;;;11.70;78.90;;;;;;5134225;28;20081;-79
2023/05/04 05:27:35;;;;;;;8.77;4.70;;;11.80;78.80;;;;;;5132537;28;20031;-78
2023/05/04 05:30:02;;;;;;;9.40;5.00;;;11.90;78.50;;;;;;5135249;27;20019;-79
2023/05/04 05:32:28;;;;;;;8.38;5.05;;;12.00;78.00;;;;;;5134688;28;20063;-79
2023/05/04 05:34:54;;;;;;;8.23;4.70;;;12.00;77.80;;;;;;5134181;28;20039;-79
2023/05/04 05:37:20;;;;;;;8.23;4.93;;;12.00;77.60;;;;;;5135672;27;20020;-78
2023/05/04 05:39:46;;;;;;;8.85;4.57;;;12.10;77.60;;;;;;5135579;28;20024;-78
2023/05/04 05:42:11;;;;;;;5.88;4.03;;;12.20;77.60;;;;;;5133809;28;20035;-79
2023/05/04 05:44:37;;;;;;;8.50;4.78;;;12.20;77.60;;;;;;5136546;27;20041;-79
2023/05/04 05:47:03;;;;;;;14.95;5.65;;;12.30;77.70;;;;;;5120593;27;20027;-79
2023/05/04 05:49:29;;;;;;;11.77;5.28;;;12.30;77.70;;;;;;5137891;27;20034;-79
2023/05/04 05:51:55;;;;;;;9.18;4.72;;;12.20;77.70;;;;;;5137751;27;20035;-80
2023/05/04 05:54:21;;;;;;;8.98;4.95;;;12.10;77.20;;;;;;5159029;27;20489;-79
2023/05/04 05:56:48;;;;;;;6.75;4.53;;;12.00;77.50;;;;;;5123193;27;20031;-78
2023/05/04 05:59:14;;;;;;;10.27;4.80;;;12.00;77.80;;;;;;5140835;27;20150;-79
2023/05/04 06:01:40;;;;;;;9.43;5.60;;;12.10;77.80;;;;;;5159278;27;20035;-80
2023/05/04 06:04:06;;;;;;;9.57;5.50;;;12.20;77.50;;;;;;5159350;27;20038;-79
2023/05/04 06:06:31;;;;;;;8.68;5.30;;;12.10;77.30;;;;;;5140312;27;20050;-79
2023/05/04 06:08:59;;;;;;;7.20;5.60;;;12.10;77.60;;;;;;5123179;27;20022;-79
2023/05/04 06:11:24;;;;;;;7.28;4.43;;;12.20;77.50;;;;;;5140453;27;20030;-79
2023/05/04 06:13:50;;;;;;;9.10;5.70;;;12.30;77.50;;;;;;5141331;27;20348;-79
2023/05/04 06:16:16;;;;;;;9.68;5.75;;;12.40;77.60;;;;;;5159027;27;20030;-79
2023/05/04 06:18:42;;;;;;;8.30;5.43;;;12.40;77.50;;;;;;5141666;27;20027;-79
2023/05/04 06:21:07;;;;;;;8.85;4.80;;;12.30;77.80;;;;;;5159960;27;20033;-79
2023/05/04 06:23:33;;;;;;;18.52;6.35;;;12.20;78.30;;;;;;5159164;27;20031;-79
2023/05/04 06:25:59;;;;;;;10.63;4.93;;;12.30;78.30;;;;;;5140379;27;20026;-79
2023/05/04 06:28:25;;;;;;;8.32;4.72;;;12.40;78.20;;;;;;5139134;27;20031;-78
2023/05/04 06:30:50;;;;;;;6.28;5.13;;;12.60;77.80;;;;;;5140062;27;20455;-78
2023/05/04 06:33:16;;;;;;;8.00;5.57;;;12.70;77.80;;;;;;5122495;27;20500;-79
2023/05/04 06:35:43;;;;;;;10.45;5.03;;;12.70;77.10;;;;;;5105054;27;20026;-79
2023/05/04 06:38:08;;;;;;;7.15;4.53;;;12.70;77.40;;;;;;5138844;27;20046;-78
2023/05/04 06:40:34;;;;;;;9.93;5.63;;;12.70;77.40;;;;;;5121870;27;20403;-80
2023/05/04 06:43:00;;;;;;;8.20;4.80;;;12.70;76.90;;;;;;5123677;27;20094;-80
2023/05/04 06:45:25;;;;;;;9.35;5.22;;;12.60;77.10;;;;;;5118828;27;20055;-80
2023/05/04 06:47:51;;;;;;;11.45;5.72;;;12.70;77.50;;;;;;5139574;27;20027;-78
2023/05/04 06:50:17;;;;;;;9.88;5.07;;;12.80;77.80;;;;;;5140541;27;20027;-79
2023/05/04 06:52:43;;;;;;;9.90;4.88;;;12.80;77.70;;;;;;5137758;27;20065;-80
2023/05/04 06:55:10;;;;;;;8.73;4.57;;;12.80;77.30;;;;;;5140189;27;20054;-79
2023/05/04 06:57:35;;;;;;;9.88;5.30;;;12.90;77.30;;;;;;5139010;27;20031;-79
2023/05/04 07:00:03;;;;;;;10.52;5.55;;;13.00;77.50;;;;;;5136536;27;20050;-79
2023/05/04 07:02:28;;;;;;;8.65;4.60;;;12.90;76.90;;;;;;5137694;27;20149;-76
2023/05/04 07:04:55;;;;;;;9.60;5.05;;;12.90;77.50;;;;;;5135682;27;20122;-78
2023/05/04 07:07:21;;;;;;;9.02;4.53;;;13.00;76.60;;;;;;5101825;27;20367;-77
2023/05/04 07:09:47;;;;;;;6.88;4.95;;;13.10;75.90;;;;;;5137015;27;20030;-77
2023/05/04 07:12:13;;;;;;;10.43;5.80;;;13.20;75.70;;;;;;5136426;27;20130;-77
2023/05/04 07:14:38;;;;;;;8.98;5.35;;;13.20;76.20;;;;;;5136728;27;20353;-77
2023/05/04 07:17:04;;;;;;;7.53;4.95;;;13.10;77.00;;;;;;5134998;27;20024;-77
2023/05/04 07:19:30;;;;;;;10.00;5.93;;;13.10;77.60;;;;;;5134887;27;20032;-77
2023/05/04 07:21:56;;;;;;;7.15;4.85;;;13.10;77.60;;;;;;5136602;27;20031;-77
2023/05/04 07:24:21;;;;;;;11.35;5.40;;;13.20;77.30;;;;;;5135062;27;20031;-78
2023/05/04 07:26:47;;;;;;;7.78;5.63;;;13.30;77.00;;;;;;5136320;27;20508;-77
2023/05/04 07:29:13;;;;;;;8.98;5.72;;;13.30;77.40;;;;;;5118571;27;20493;-77
2023/05/04 07:31:38;;;;;;;7.30;5.15;;;13.30;76.60;;;;;;5136491;27;20092;-77
2023/05/04 07:34:04;;;;;;;8.60;5.65;;;13.40;75.90;;;;;;5135518;27;20034;-77
2023/05/04 07:36:29;;;;;;;8.35;4.80;;;13.50;76.50;;;;;;5136177;27;20415;-78
2023/05/04 07:38:55;;;;;;;8.05;5.40;;;13.60;76.20;;;;;;5135426;27;20027;-78
2023/05/04 07:41:21;;;;;;;9.98;6.57;;;13.70;76.20;;;;;;5134387;27;20034;-78
2023/05/04 07:43:47;;;;;;;8.80;6.07;;;13.80;76.70;;;;;;5117043;27;20382;-77
2023/05/04 07:46:12;;;;;;;6.75;4.75;;;13.80;76.70;;;;;;5146291;27;20093;-79
2023/05/04 07:48:38;;;;;;;7.80;5.47;;;13.90;76.70;;;;;;5137680;27;20047;-78
2023/05/04 07:51:04;;;;;;;9.88;5.35;;;14.00;77.60;;;;;;5137592;27;20473;-78
2023/05/04 07:53:29;;;;;;;11.00;5.38;;;14.10;77.60;;;;;;5137201;27;20045;-77
2023/05/04 07:55:59;;;;;;;9.05;5.25;;;14.20;77.50;;;;;;5120135;27;20062;-78
2023/05/04 07:58:25;;;;;;;8.18;5.82;;;14.40;77.20;;;;;;5121362;27;20460;-77
2023/05/04 08:00:51;;;;;;;10.63;5.70;;;14.60;77.60;;;;;;5136559;27;20019;-78
2023/05/04 08:03:17;;;;;;;7.38;4.97;;;14.70;76.80;;;;;;5155118;27;20083;-77
2023/05/04 08:05:42;;;;;;;9.50;5.35;;;14.80;75.50;;;;;;5155131;27;20027;-78
2023/05/04 08:08:08;;;;;;;7.90;4.90;;;14.90;76.10;;;;;;5155518;27;20058;-78
2023/05/04 08:10:37;;;;;;;8.43;5.20;;;15.00;75.60;;;;;;5137136;27;20023;-78
2023/05/04 08:13:05;;;;;;;7.55;5.00;;;15.00;75.20;;;;;;5155250;27;20031;-79
2023/05/04 08:15:31;;;;;;;8.25;5.13;;;15.00;75.10;;;;;;5136848;27;20095;-79
2023/05/04 08:17:57;;;;;;;7.65;4.53;;;15.10;75.90;;;;;;5136603;27;20466;-78
2023/05/04 08:20:23;;;;;;;8.93;4.68;;;15.30;74.30;;;;;;5155183;27;20071;-77
2023/05/04 08:22:48;;;;;;;6.38;4.90;;;15.40;73.60;;;;;;5155143;27;20026;-78
2023/05/04 08:25:14;;;;;;;10.23;5.30;;;15.60;74.60;;;;;;5136424;27;20082;-78
2023/05/04 08:27:40;;;;;;;8.65;5.25;;;15.60;74.50;;;;;;5136646;27;20031;-78
2023/05/04 08:30:07;;;;;;;6.88;4.70;;;15.70;74.10;;;;;;5136683;27;20027;-79
2023/05/04 08:32:32;;;;;;;8.18;4.43;;;15.70;73.60;;;;;;5136393;27;20030;-77
2023/05/04 08:34:58;;;;;;;5.85;4.68;;;15.70;73.50;;;;;;5155093;27;20035;-76
2023/05/04 08:37:24;;;;;;;8.13;4.93;;;15.70;73.50;;;;;;5136446;27;20035;-78
2023/05/04 08:39:49;;;;;;;6.72;4.43;;;15.70;74.10;;;;;;5136532;27;20054;-77
2023/05/04 08:42:29;;;;;;;6.88;4.50;;;15.70;73.90;;;;;;5136661;27;20026;-77
2023/05/04 08:44:56;;;;;;;11.25;4.80;;;15.80;72.90;;;;;;5154495;27;20031;-74
2023/05/04 08:47:24;;;;;;;6.78;3.72;;;15.90;73.60;;;;;;5155107;27;20134;-76
2023/05/04 08:49:51;;;;;;;6.85;3.95;;;16.00;72.50;;;;;;5118939;27;20038;-77
2023/05/04 08:52:17;;;;;;;8.45;4.28;;;16.10;71.10;;;;;;5136227;27;20379;-78
2023/05/04 08:54:44;;;;;;;7.18;3.63;;;16.20;70.70;;;;;;5154737;27;20040;-78
2023/05/04 08:57:11;;;;;;;7.22;4.00;;;16.30;70.10;;;;;;5136073;27;20026;-78
2023/05/04 08:59:37;;;;;;;7.63;4.28;;;16.40;70.90;;;;;;5154721;27;20019;-78
2023/05/04 09:02:03;;;;;;;10.35;4.40;;;16.40;71.00;;;;;;5154712;27;20098;-78
2023/05/04 09:04:29;;;;;;;7.95;3.75;;;16.40;70.70;;;;;;5154647;27;20031;-79
2023/05/04 09:06:56;;;;;;;6.10;4.40;;;16.50;69.90;;;;;;5154643;27;20082;-78
2023/05/04 09:09:26;;;;;;;8.68;4.18;;;16.50;69.20;;;;;;5154551;27;20050;-78
2023/05/04 09:11:52;;;;;;;7.75;4.50;;;16.60;69.10;;;;;;5136186;27;20050;-78
2023/05/04 09:14:17;;;;;;;8.43;4.05;;;16.60;70.30;;;;;;5155444;27;20123;-78
2023/05/04 09:16:43;;;;;;;6.88;3.90;;;16.70;69.90;;;;;;5155057;27;20026;-78
2023/05/04 09:19:20;;;;;;;9.90;5.07;;;16.80;70.00;;;;;;5135904;27;20363;-78
2023/05/04 09:21:46;;;;;;;9.60;5.25;;;16.80;70.10;;;;;;5136055;27;20034;-77
2023/05/04 09:24:12;;;;;;;7.00;4.00;;;16.90;70.70;;;;;;5135505;27;20111;-78
2023/05/04 09:26:38;;;;;;;10.75;4.78;;;17.00;70.70;;;;;;5137997;27;20066;-78
2023/05/04 09:29:12;;;;;;;11.55;4.63;;;17.10;70.30;;;;;;5161058;27;20035;-78
2023/05/04 09:31:48;;;;;;;6.68;4.10;;;17.20;69.80;;;;;;5124157;27;20031;-77
2023/05/04 09:34:14;;;;;;;10.60;4.75;;;17.20;69.40;;;;;;5160238;27;20035;-78
2023/05/04 09:36:43;;;;;;;6.70;4.53;;;17.30;69.20;;;;;;5159496;27;20030;-79
2023/05/04 09:39:13;;;;;;;7.95;4.60;;;17.30;69.60;;;;;;5159455;27;20019;-78
2023/05/04 09:41:40;;;;;;;8.50;4.18;;;17.40;69.10;;;;;;5159778;27;20030;-78
2023/05/04 09:44:17;;;;;;;8.05;4.20;;;17.40;68.90;;;;;;5160005;27;20027;-80
2023/05/04 09:46:52;;;;;;;9.45;5.13;;;17.40;69.20;;;;;;5160228;27;20043;-78
2023/05/04 09:49:19;;;;;;;8.35;4.82;;;17.60;69.10;;;;;;5143249;27;20026;-77
2023/05/04 09:51:46;;;;;;;6.95;4.72;;;17.60;69.80;;;;;;5125757;27;20023;-79
2023/05/04 09:54:14;;;;;;;8.70;4.60;;;17.80;70.10;;;;;;5142865;27;20030;-78
2023/05/04 09:56:48;;;;;;;6.63;4.88;;;17.90;70.70;;;;;;5143860;27;20104;-78
2023/05/04 09:59:16;;;;;;;7.85;5.00;;;18.00;69.00;;;;;;5142926;27;20027;-76
2023/05/04 10:01:43;;;;;;;9.52;4.90;;;18.10;69.60;;;;;;5161291;27;20019;-77
2023/05/04 10:04:09;;;;;;;8.75;4.85;;;18.20;69.80;;;;;;5162237;27;20095;-78
2023/05/04 10:06:35;;;;;;;8.38;4.78;;;18.30;68.90;;;;;;5126204;27;20035;-78
2023/05/04 10:09:00;;;;;;;7.35;4.30;;;18.50;69.40;;;;;;5126655;27;20027;-78
2023/05/04 10:11:27;;;;;;;9.73;4.30;;;18.60;69.50;;;;;;5145635;27;20022;-77
2023/05/04 10:13:56;;;;;;;7.97;4.75;;;18.60;67.80;;;;;;5164088;27;20031;-76
2023/05/04 10:16:25;;;;;;;8.10;4.50;;;18.80;67.50;;;;;;5143636;27;20419;-79
2023/05/04 10:19:02;;;;;;;8.63;3.90;;;18.90;67.60;;;;;;5163356;27;20029;-77
2023/05/04 10:21:29;;;;;;;9.55;4.38;;;19.00;66.10;;;;;;5163974;27;20042;-77
2023/05/04 10:24:15;;;;;;;11.88;4.78;;;19.20;66.60;;;;;;5144657;27;20125;-77
2023/05/04 10:26:54;;;;;;;7.45;4.30;;;19.30;67.00;;;;;;5161059;27;20031;-78
2023/05/04 10:29:20;;;;;;;11.43;4.28;;;19.50;68.20;;;;;;5160513;27;20167;-77
2023/05/04 10:31:47;;;;;;;7.80;3.70;;;19.60;65.20;;;;;;5141479;27;20054;-77
2023/05/04 10:34:23;;;;;;;7.28;3.97;;;19.70;64.50;;;;;;5141075;27;20042;-77
2023/05/04 10:36:49;;;;;;;6.05;3.78;;;19.80;64.40;;;;;;5140237;27;20033;-77
2023/05/04 10:39:22;;;;;;;7.75;3.67;;;19.90;65.60;;;;;;5157135;27;20106;-78
2023/05/04 10:42:04;;;;;;;7.03;4.18;;;20.10;64.20;;;;;;5158949;27;20023;-78
2023/05/04 10:44:36;;;;;;;8.50;3.92;;;20.30;63.60;;;;;;5122968;27;20031;-79
2023/05/04 10:47:06;;;;;;;5.72;3.50;;;20.40;62.70;;;;;;5159684;27;20095;-78
2023/05/04 10:49:33;;;;;;;7.18;4.32;;;20.50;61.60;;;;;;5121968;27;20031;-78
2023/05/04 10:52:08;;;;;;;7.07;3.83;;;20.60;62.90;;;;;;5159512;27;20030;-78
2023/05/04 10:54:35;;;;;;;9.85;3.95;;;20.70;62.50;;;;;;5162828;27;20027;-78
2023/05/04 10:57:06;;;;;;;8.65;4.07;;;20.80;61.80;;;;;;5105651;27;20117;-79
2023/05/04 10:59:32;;;;;;;7.97;3.97;;;20.90;62.30;;;;;;5139659;27;20031;-80
2023/05/04 11:02:02;;;;;;;9.40;4.38;;;21.00;60.90;;;;;;5158708;27;20025;-78
2023/05/04 11:04:28;;;;;;;5.60;3.97;;;21.00;59.50;;;;;;5139862;27;20027;-77
2023/05/04 11:07:07;;;;;;;9.48;4.53;;;21.10;59.30;;;;;;5157271;27;20106;-78
2023/05/04 11:09:41;;;;;;;6.88;4.47;;;21.20;60.90;;;;;;5139533;27;20033;-78
2023/05/04 11:12:10;;;;;;;9.43;4.70;;;21.20;60.20;;;;;;5138251;27;20073;-79
2023/05/04 11:14:40;;;;;;;6.20;3.60;;;21.20;59.80;;;;;;5156875;27;20022;-78
2023/05/04 11:17:11;;;;;;;6.88;4.10;;;21.30;59.50;;;;;;5156744;27;20095;-78
2023/05/04 11:19:50;;;;;;;7.53;4.43;;;21.50;61.10;;;;;;5138668;27;20065;-79
2023/05/04 11:22:17;;;;;;;9.15;4.28;;;21.50;58.80;;;;;;5157887;27;20023;-79
2023/05/04 11:24:44;;;;;;;9.52;4.68;;;21.60;59.00;;;;;;5158053;27;20038;-79
2023/05/04 11:27:28;;;;;;;7.32;4.30;;;21.80;59.70;;;;;;5157409;27;20030;-78
2023/05/04 11:30:03;;;;;;;7.78;4.60;;;21.80;57.60;;;;;;5138952;27;20091;-79
2023/05/04 11:32:41;;;;;;;8.30;4.72;;;21.90;59.70;;;;;;5138373;27;20114;-78
2023/05/04 11:35:09;;;;;;;7.80;3.80;;;22.10;58.50;;;;;;5138806;27;20038;-78
2023/05/04 11:37:42;;;;;;;7.15;3.63;;;22.20;59.10;;;;;;5156345;27;20027;-78
2023/05/04 11:40:12;;;;;;;8.88;4.80;;;22.40;59.40;;;;;;5156569;27;20053;-78
2023/05/04 11:42:39;;;;;;;8.82;4.47;;;22.50;57.00;;;;;;5162606;27;20148;-79
2023/05/04 11:45:20;;;;;;;6.18;4.65;;;22.70;58.10;;;;;;5158696;27;20031;-79
2023/05/04 11:47:47;;;;;;;7.20;4.00;;;22.80;56.90;;;;;;5142943;27;20066;-78
2023/05/04 11:50:15;;;;;;;6.68;4.13;;;22.90;57.90;;;;;;5160767;27;20436;-80
2023/05/04 11:52:42;;;;;;;7.00;4.00;;;23.10;57.00;;;;;;5161361;27;20604;-78
2023/05/04 11:55:12;;;;;;;7.30;4.38;;;23.10;56.70;;;;;;5161258;27;20031;-79
2023/05/04 11:57:38;;;;;;;8.00;4.30;;;23.20;55.90;;;;;;5162660;27;20029;-79
2023/05/04 12:00:05;;;;;;;10.18;4.55;;;23.30;55.80;;;;;;5141621;27;20350;-78
2023/05/04 12:02:32;;;;;;;9.60;4.70;;;23.30;54.90;;;;;;5160973;27;20034;-80
2023/05/04 12:04:58;;;;;;;8.10;4.38;;;23.30;53.40;;;;;;5161545;27;20027;-79
2023/05/04 12:07:23;;;;;;;9.23;5.18;;;23.10;54.10;;;;;;5165163;27;20125;-79
2023/05/04 12:09:49;;;;;;;7.32;4.75;;;23.20;54.80;;;;;;5124980;27;20039;-79
2023/05/04 12:12:17;;;;;;;8.00;4.72;;;23.30;55.30;;;;;;5129877;27;20057;-80
2023/05/04 12:14:55;;;;;;;8.50;5.40;;;23.40;54.20;;;;;;5162607;27;20030;-79
2023/05/04 12:17:22;;;;;;;10.50;4.82;;;23.40;52.10;;;;;;5163474;27;20382;-79
2023/05/04 12:19:54;;;;;;;8.35;5.18;;;23.40;52.90;;;;;;5160172;27;20074;-79
2023/05/04 12:22:29;;;;;;;6.68;4.50;;;23.40;53.90;;;;;;5162797;27;20340;-79
2023/05/04 12:24:59;;;;;;;7.45;4.70;;;23.50;52.70;;;;;;5162416;27;20039;-80
2023/05/04 12:27:25;;;;;;;7.90;5.03;;;23.50;52.40;;;;;;5143873;27;20023;-79
2023/05/04 12:29:51;;;;;;;8.45;5.65;;;23.50;52.50;;;;;;5164585;27;20027;-79
2023/05/04 12:32:17;;;;;;;5.00;4.50;;;23.50;53.30;;;;;;5131003;27;20079;-79
2023/05/04 12:34:43;;;;;;;6.32;4.53;;;23.60;53.10;;;;;;5145094;27;20031;-78
2023/05/04 12:37:10;;;;;;;7.85;5.00;;;23.70;52.00;;;;;;5127279;27;20045;-79
2023/05/04 12:39:36;;;;;;;9.07;4.90;;;23.70;51.90;;;;;;5145932;27;20395;-79
2023/05/04 12:42:03;;;;;;;6.93;5.07;;;23.80;52.60;;;;;;5124344;27;20026;-78
2023/05/04 12:44:29;;;;;;;11.73;5.38;;;23.90;51.20;;;;;;5141897;27;20027;-80
2023/05/04 12:46:55;;;;;;;7.80;5.28;;;23.80;51.80;;;;;;5124729;27;20062;-79